Time;durP1;ratioP1;P1;durP2;ratioP2;P2;SDS_P1;SDS_P2;PMS_P1;PMS_P2;Temp;Humidity;BMP_temperature;BMP_pressure;BME280_temperature;BME280_humidity;BME280_pressure;Samples;Min_cycle;Max_cycle;Signal;HPM_P1;HPM_P2
2022/08/30 00:01:24;;;;;;;1.45;1.00;;;23.00;61.80;;;;;;4448668;32;20133;-71
2022/08/30 00:03:51;;;;;;;1.98;1.13;;;23.00;61.90;;;;;;4462682;32;20097;-70
2022/08/30 00:06:18;;;;;;;2.10;1.00;;;23.00;61.90;;;;;;4463137;32;20086;-71
2022/08/30 00:08:45;;;;;;;2.38;1.10;;;23.00;61.90;;;;;;4462509;32;20136;-70
2022/08/30 00:11:14;;;;;;;4.75;0.90;;;23.00;61.80;;;;;;4462602;32;20199;-71
2022/08/30 00:13:42;;;;;;;2.55;1.08;;;23.00;61.80;;;;;;4462845;32;20392;-71
2022/08/30 00:16:08;;;;;;;2.78;1.13;;;23.00;61.80;;;;;;4462337;32;20186;-70
2022/08/30 00:18:35;;;;;;;1.75;0.98;;;23.00;61.80;;;;;;4462608;32;20097;-70
2022/08/30 00:21:01;;;;;;;2.05;1.00;;;23.00;61.80;;;;;;4462709;32;20251;-70
2022/08/30 00:23:27;;;;;;;2.22;1.00;;;23.00;61.80;;;;;;4462678;32;20093;-70
2022/08/30 00:25:53;;;;;;;1.88;1.13;;;23.00;61.80;;;;;;4462943;32;20275;-73
2022/08/30 00:28:19;;;;;;;2.28;1.00;;;23.00;61.80;;;;;;4448854;32;20082;-70
2022/08/30 00:30:45;;;;;;;1.40;0.90;;;23.00;61.80;;;;;;4462812;32;20159;-70
2022/08/30 00:33:13;;;;;;;1.60;0.88;;;23.00;61.80;;;;;;4462553;32;20125;-71
2022/08/30 00:35:39;;;;;;;1.85;1.20;;;23.00;61.80;;;;;;4462694;32;20081;-71
2022/08/30 00:38:06;;;;;;;2.30;0.82;;;23.00;61.90;;;;;;4448521;32;20414;-70
2022/08/30 00:40:33;;;;;;;1.70;0.90;;;23.00;61.80;;;;;;4448360;32;20081;-71
2022/08/30 00:43:01;;;;;;;1.35;0.90;;;23.00;61.80;;;;;;4462223;32;20500;-70
2022/08/30 00:45:31;;;;;;;1.85;1.15;;;22.90;61.80;;;;;;4462316;32;20152;-70
2022/08/30 00:47:57;;;;;;;1.92;0.70;;;22.90;61.80;;;;;;4462050;32;20092;-70
2022/08/30 00:50:28;;;;;;;1.25;0.70;;;22.90;61.80;;;;;;4462200;32;20163;-70
2022/08/30 00:52:58;;;;;;;2.13;0.85;;;22.90;61.70;;;;;;4462510;32;20092;-73
2022/08/30 00:55:25;;;;;;;1.48;0.80;;;22.90;61.70;;;;;;4462531;32;20090;-70
2022/08/30 00:57:57;;;;;;;2.78;1.00;;;23.00;61.80;;;;;;4461976;32;20116;-70
2022/08/30 01:00:23;;;;;;;2.33;0.77;;;22.90;61.70;;;;;;4462039;32;20108;-70
2022/08/30 01:02:49;;;;;;;1.60;0.93;;;22.90;61.70;;;;;;4462095;32;20503;-70
2022/08/30 01:05:15;;;;;;;1.08;0.63;;;22.90;61.70;;;;;;4462328;32;20065;-70
2022/08/30 01:07:41;;;;;;;1.50;0.80;;;22.90;61.70;;;;;;4462022;32;20120;-70
2022/08/30 01:10:10;;;;;;;1.92;1.10;;;22.90;61.70;;;;;;4462208;32;20078;-70
2022/08/30 01:12:40;;;;;;;1.17;0.77;;;22.90;61.60;;;;;;4461956;32;20137;-70
2022/08/30 01:15:07;;;;;;;1.90;0.73;;;22.90;61.70;;;;;;4461741;32;20515;-72
2022/08/30 01:17:33;;;;;;;1.33;0.90;;;22.90;61.70;;;;;;4462139;32;20088;-70
2022/08/30 01:20:09;;;;;;;1.25;0.80;;;22.90;61.70;;;;;;4461758;32;20646;-70
2022/08/30 01:22:49;;;;;;;2.00;0.85;;;22.90;61.70;;;;;;4462151;32;20530;-70
2022/08/30 01:25:29;;;;;;;1.17;0.73;;;22.90;61.70;;;;;;4462063;32;20203;-70
2022/08/30 01:28:03;;;;;;;1.60;0.70;;;22.90;61.70;;;;;;4461804;32;20491;-71
2022/08/30 01:30:30;;;;;;;1.23;0.77;;;22.90;61.60;;;;;;4461568;32;20074;-70
2022/08/30 01:33:01;;;;;;;1.10;0.70;;;22.90;61.70;;;;;;4461358;32;20599;-71
2022/08/30 01:35:31;;;;;;;1.42;0.80;;;22.90;61.70;;;;;;4461755;32;20090;-70
2022/08/30 01:37:58;;;;;;;1.15;0.80;;;22.90;61.70;;;;;;4461566;32;20077;-70
2022/08/30 01:40:24;;;;;;;1.50;1.00;;;22.80;61.60;;;;;;4461431;32;20073;-70
2022/08/30 01:42:50;;;;;;;1.73;1.00;;;22.80;62.50;;;;;;4447347;32;20077;-70
2022/08/30 01:45:16;;;;;;;1.27;0.80;;;22.90;61.70;;;;;;4461742;32;20215;-71
2022/08/30 01:47:42;;;;;;;1.10;0.70;;;22.90;61.60;;;;;;4461179;32;20074;-70
2022/08/30 01:50:09;;;;;;;1.50;0.77;;;22.80;61.60;;;;;;4461531;32;20219;-70
2022/08/30 01:52:36;;;;;;;1.00;0.70;;;22.80;61.60;;;;;;4461122;32;20423;-70
2022/08/30 01:55:03;;;;;;;3.45;0.85;;;22.80;61.60;;;;;;4461289;32;20133;-70
2022/08/30 01:57:29;;;;;;;1.30;0.70;;;22.80;61.60;;;;;;4461049;32;20219;-71
2022/08/30 01:59:55;;;;;;;1.63;0.80;;;22.80;61.60;;;;;;4460963;32;20516;-70
2022/08/30 02:02:25;;;;;;;0.93;0.60;;;22.80;61.60;;;;;;4461034;32;20101;-70
2022/08/30 02:04:52;;;;;;;1.13;0.70;;;22.80;61.50;;;;;;4461210;32;20183;-70
2022/08/30 02:07:19;;;;;;;1.00;0.60;;;22.80;61.60;;;;;;4461157;32;20590;-70
2022/08/30 02:09:45;;;;;;;1.27;0.90;;;22.80;61.60;;;;;;4460666;32;20159;-73
2022/08/30 02:12:11;;;;;;;1.05;0.73;;;22.80;61.60;;;;;;4461055;32;20117;-70
2022/08/30 02:14:37;;;;;;;1.45;0.68;;;22.80;61.50;;;;;;4461348;32;20497;-70
2022/08/30 02:17:06;;;;;;;1.60;0.95;;;22.80;61.50;;;;;;4461036;32;20203;-70
2022/08/30 02:19:32;;;;;;;1.17;0.68;;;22.80;61.50;;;;;;4461181;32;20267;-70
2022/08/30 02:21:58;;;;;;;1.30;0.90;;;22.80;61.50;;;;;;4461234;32;20117;-71
2022/08/30 02:24:24;;;;;;;0.77;0.60;;;22.80;61.50;;;;;;4460939;32;20093;-70
2022/08/30 02:26:51;;;;;;;2.28;0.95;;;22.80;61.50;;;;;;4460691;32;20136;-70
2022/08/30 02:29:19;;;;;;;1.20;0.60;;;22.80;61.60;;;;;;4446882;32;20486;-70
2022/08/30 02:31:45;;;;;;;1.20;0.52;;;22.80;61.50;;;;;;4460861;32;20214;-70
2022/08/30 02:34:11;;;;;;;1.35;0.65;;;22.80;61.50;;;;;;4460859;32;20199;-70
2022/08/30 02:36:39;;;;;;;1.30;0.88;;;22.80;61.50;;;;;;4460772;32;20385;-70
2022/08/30 02:39:07;;;;;;;1.17;0.60;;;22.80;61.50;;;;;;4460830;32;20121;-70
2022/08/30 02:41:33;;;;;;;0.85;0.60;;;22.80;61.50;;;;;;4460665;32;20117;-70
2022/08/30 02:43:59;;;;;;;1.35;0.60;;;22.80;61.50;;;;;;4460843;32;20057;-70
2022/08/30 02:46:26;;;;;;;0.90;0.52;;;22.80;61.60;;;;;;4460920;32;20163;-70
2022/08/30 02:48:53;;;;;;;1.35;0.75;;;22.80;61.50;;;;;;4460347;32;20106;-70
2022/08/30 02:51:19;;;;;;;0.90;0.47;;;22.80;61.50;;;;;;4460593;32;20078;-70
2022/08/30 02:53:45;;;;;;;1.42;0.63;;;22.80;61.50;;;;;;4460895;32;20163;-70
2022/08/30 02:56:14;;;;;;;1.35;0.57;;;22.80;61.50;;;;;;4460567;32;20085;-70
2022/08/30 02:58:42;;;;;;;1.23;0.65;;;22.80;61.50;;;;;;4460571;32;20395;-70
2022/08/30 03:01:11;;;;;;;1.52;0.77;;;22.70;61.50;;;;;;4460696;32;20070;-70
2022/08/30 03:03:36;;;;;;;2.17;0.70;;;22.70;61.50;;;;;;4460737;32;20081;-70
2022/08/30 03:06:02;;;;;;;1.33;0.65;;;22.70;61.40;;;;;;4460721;32;20080;-70
2022/08/30 03:08:29;;;;;;;1.85;0.90;;;22.70;61.40;;;;;;4460637;32;20058;-70
2022/08/30 03:10:56;;;;;;;2.95;0.60;;;22.70;61.50;;;;;;4460512;32;20078;-70
2022/08/30 03:13:23;;;;;;;0.98;0.50;;;22.70;61.50;;;;;;4460453;32;20128;-70
2022/08/30 03:15:49;;;;;;;1.30;0.80;;;22.70;61.40;;;;;;4460689;32;20069;-70
2022/08/30 03:18:17;;;;;;;1.17;0.63;;;22.70;61.40;;;;;;4460416;32;20430;-70
2022/08/30 03:20:43;;;;;;;1.15;0.50;;;22.70;61.50;;;;;;4461552;32;20422;-70
2022/08/30 03:23:09;;;;;;;0.85;0.52;;;22.70;61.40;;;;;;4463374;32;20069;-71
2022/08/30 03:25:35;;;;;;;1.60;0.70;;;22.70;61.40;;;;;;4463540;32;20070;-71
2022/08/30 03:28:01;;;;;;;0.50;0.40;;;22.70;61.40;;;;;;4463619;32;20162;-70
2022/08/30 03:30:27;;;;;;;0.82;0.50;;;22.70;61.40;;;;;;4463519;32;20088;-72
2022/08/30 03:32:53;;;;;;;1.00;0.65;;;22.70;61.40;;;;;;4463412;32;20099;-70
2022/08/30 03:35:19;;;;;;;1.25;0.68;;;22.70;61.40;;;;;;4449135;32;20139;-72
2022/08/30 03:37:45;;;;;;;0.90;0.50;;;22.70;61.40;;;;;;4463595;32;20569;-70
2022/08/30 03:40:14;;;;;;;0.90;0.38;;;22.70;61.40;;;;;;4463239;32;20120;-70
2022/08/30 03:42:40;;;;;;;0.80;0.52;;;22.70;61.40;;;;;;4463079;32;20070;-70
2022/08/30 03:45:08;;;;;;;0.90;0.63;;;22.70;61.40;;;;;;4463210;32;20081;-70
2022/08/30 03:47:35;;;;;;;1.00;0.60;;;22.70;61.40;;;;;;4462996;32;20086;-70
2022/08/30 03:50:01;;;;;;;1.05;0.60;;;22.60;61.40;;;;;;4463088;32;20098;-70
2022/08/30 03:52:27;;;;;;;0.95;0.55;;;22.60;61.40;;;;;;4462868;32;20630;-70
2022/08/30 03:54:53;;;;;;;0.98;0.60;;;22.70;61.40;;;;;;4463352;32;20077;-70
2022/08/30 03:57:18;;;;;;;0.95;0.57;;;22.60;61.40;;;;;;4463066;32;20082;-70
2022/08/30 03:59:44;;;;;;;1.45;0.65;;;22.60;61.40;;;;;;4449033;32;20070;-70
2022/08/30 04:02:10;;;;;;;0.90;0.70;;;22.60;61.40;;;;;;4463173;32;20215;-71
2022/08/30 04:04:36;;;;;;;0.82;0.47;;;22.60;61.40;;;;;;4462685;32;20073;-70
2022/08/30 04:07:02;;;;;;;1.17;0.70;;;22.60;61.40;;;;;;4462914;32;20105;-70
2022/08/30 04:09:28;;;;;;;1.23;0.60;;;22.60;61.40;;;;;;4462887;32;20082;-70
2022/08/30 04:11:53;;;;;;;0.65;0.40;;;22.60;61.40;;;;;;4463078;32;20082;-70
2022/08/30 04:14:21;;;;;;;1.00;0.63;;;22.60;61.30;;;;;;4462871;32;20062;-71
2022/08/30 04:16:46;;;;;;;0.80;0.55;;;22.60;61.40;;;;;;4462779;32;20530;-70
2022/08/30 04:19:12;;;;;;;0.85;0.68;;;22.60;61.40;;;;;;4462739;32;20074;-70
2022/08/30 04:21:38;;;;;;;0.73;0.50;;;22.60;61.30;;;;;;4462523;32;20070;-70
2022/08/30 04:24:04;;;;;;;0.50;0.45;;;22.60;61.40;;;;;;4462393;32;20078;-70
2022/08/30 04:26:30;;;;;;;1.50;0.60;;;22.60;61.30;;;;;;4448884;32;20506;-70
2022/08/30 04:28:57;;;;;;;0.70;0.50;;;22.60;61.40;;;;;;4462752;32;20089;-70
2022/08/30 04:31:22;;;;;;;0.95;0.50;;;22.60;61.40;;;;;;4462211;32;20547;-70
2022/08/30 04:33:48;;;;;;;0.65;0.60;;;22.60;61.30;;;;;;4462382;32;20199;-70
2022/08/30 04:36:14;;;;;;;1.40;0.70;;;22.60;61.40;;;;;;4448221;32;20074;-70
2022/08/30 04:38:41;;;;;;;0.77;0.35;;;22.60;61.40;;;;;;4462450;32;20084;-70
2022/08/30 04:41:15;;;;;;;2.13;0.80;;;22.60;61.40;;;;;;4462126;32;20078;-70
2022/08/30 04:43:50;;;;;;;0.80;0.60;;;22.60;61.40;;;;;;4448649;32;20555;-70
2022/08/30 04:46:17;;;;;;;0.77;0.50;;;22.60;61.40;;;;;;4462474;32;20433;-70
2022/08/30 04:48:42;;;;;;;0.55;0.50;;;22.50;61.30;;;;;;4462522;32;20105;-70
2022/08/30 04:51:12;;;;;;;0.50;0.45;;;22.60;61.40;;;;;;4462377;32;20463;-70
2022/08/30 04:53:39;;;;;;;0.68;0.50;;;22.50;61.40;;;;;;4463033;32;20087;-70
2022/08/30 04:56:11;;;;;;;0.63;0.35;;;22.50;61.30;;;;;;4448280;32;20129;-70
2022/08/30 04:58:37;;;;;;;0.80;0.47;;;22.60;61.40;;;;;;4462424;32;20078;-70
2022/08/30 05:01:03;;;;;;;0.55;0.45;;;22.50;61.30;;;;;;4462183;32;20078;-70
2022/08/30 05:03:29;;;;;;;0.70;0.40;;;22.60;61.40;;;;;;4462115;32;20088;-70
2022/08/30 05:05:55;;;;;;;0.77;0.52;;;22.50;61.30;;;;;;4462355;32;20105;-70
2022/08/30 05:08:21;;;;;;;0.80;0.60;;;22.60;61.30;;;;;;4462096;32;20408;-71
2022/08/30 05:10:50;;;;;;;0.80;0.50;;;22.50;61.30;;;;;;4461781;32;20073;-70
2022/08/30 05:13:17;;;;;;;1.05;0.40;;;22.50;61.30;;;;;;4462164;32;20069;-70
2022/08/30 05:15:43;;;;;;;1.20;0.43;;;22.50;61.30;;;;;;4447954;32;20066;-70
2022/08/30 05:18:10;;;;;;;1.08;0.70;;;22.50;61.30;;;;;;4461836;32;20419;-71
2022/08/30 05:20:37;;;;;;;3.88;0.50;;;22.60;61.40;;;;;;4461830;32;20191;-71
2022/08/30 05:23:04;;;;;;;2.08;0.60;;;22.50;61.20;;;;;;4461969;32;20085;-71
2022/08/30 05:25:33;;;;;;;0.77;0.45;;;22.50;61.00;;;;;;4461470;32;20507;-72
2022/08/30 05:27:59;;;;;;;3.63;0.80;;;22.50;60.40;;;;;;4461745;32;20089;-72
2022/08/30 05:30:26;;;;;;;1.08;0.60;;;22.50;60.10;;;;;;4461431;32;20081;-71
2022/08/30 05:32:53;;;;;;;0.93;0.52;;;22.40;60.00;;;;;;4447647;32;20113;-72
2022/08/30 05:35:20;;;;;;;2.22;0.60;;;22.40;59.90;;;;;;4461597;32;20084;-72
2022/08/30 05:37:46;;;;;;;1.30;0.70;;;22.40;59.90;;;;;;4461520;32;20508;-72
2022/08/30 05:40:16;;;;;;;1.65;0.70;;;22.40;59.90;;;;;;4461453;32;20172;-72
2022/08/30 05:42:43;;;;;;;1.58;0.60;;;22.40;59.90;;;;;;4461244;32;20571;-71
2022/08/30 05:45:10;;;;;;;2.17;0.80;;;22.40;59.90;;;;;;4461716;32;20081;-72
2022/08/30 05:47:37;;;;;;;2.67;0.80;;;22.40;59.80;;;;;;4447367;32;20499;-72
2022/08/30 05:50:05;;;;;;;1.42;0.70;;;22.40;59.80;;;;;;4461236;32;20507;-72
2022/08/30 05:52:37;;;;;;;2.33;0.90;;;22.40;59.70;;;;;;4461394;32;20522;-71
2022/08/30 05:55:06;;;;;;;1.52;0.80;;;22.30;59.60;;;;;;4461656;32;20495;-71
2022/08/30 05:57:34;;;;;;;3.80;0.85;;;22.30;59.60;;;;;;4461516;32;20117;-71
2022/08/30 06:00:02;;;;;;;2.08;0.60;;;22.30;59.60;;;;;;4461558;32;20179;-71
2022/08/30 06:02:28;;;;;;;3.70;0.77;;;22.30;59.70;;;;;;4461314;32;20270;-71
2022/08/30 06:04:54;;;;;;;2.08;0.80;;;22.30;59.70;;;;;;4461148;32;20065;-71
2022/08/30 06:07:20;;;;;;;1.92;0.80;;;22.30;59.90;;;;;;4446948;32;20093;-71
2022/08/30 06:09:46;;;;;;;3.42;0.90;;;22.40;60.00;;;;;;4461089;32;20085;-71
2022/08/30 06:12:11;;;;;;;2.78;0.80;;;22.40;60.10;;;;;;4461084;32;20570;-71
2022/08/30 06:14:38;;;;;;;3.10;0.95;;;22.40;60.10;;;;;;4461366;32;20077;-71
2022/08/30 06:17:04;;;;;;;2.10;0.90;;;22.40;60.10;;;;;;4461238;32;20507;-71
2022/08/30 06:19:30;;;;;;;3.50;1.10;;;22.50;60.10;;;;;;4460893;32;20088;-70
2022/08/30 06:22:00;;;;;;;2.80;0.95;;;22.50;60.20;;;;;;4460791;32;20596;-71
2022/08/30 06:24:26;;;;;;;1.50;0.77;;;22.50;60.30;;;;;;4461097;32;20617;-70
2022/08/30 06:26:52;;;;;;;2.65;0.80;;;22.50;60.30;;;;;;4460650;32;20194;-71
2022/08/30 06:29:19;;;;;;;2.97;0.80;;;22.50;60.30;;;;;;4460866;32;20058;-71
2022/08/30 06:31:46;;;;;;;2.45;0.90;;;22.50;60.40;;;;;;4460879;32;20073;-74
2022/08/30 06:34:12;;;;;;;4.00;0.90;;;22.60;60.60;;;;;;4460789;32;20604;-73
2022/08/30 06:36:38;;;;;;;4.45;0.90;;;22.60;60.60;;;;;;4460969;32;20431;-72
2022/08/30 06:39:04;;;;;;;7.20;1.15;;;22.60;60.70;;;;;;4460748;32;20121;-74
2022/08/30 06:41:32;;;;;;;6.20;0.93;;;22.70;60.80;;;;;;4460676;32;20080;-72
2022/08/30 06:44:01;;;;;;;4.22;0.80;;;22.70;60.90;;;;;;4460999;32;20089;-72
2022/08/30 06:46:31;;;;;;;3.08;0.73;;;22.70;61.10;;;;;;4460901;32;20077;-72
2022/08/30 06:48:57;;;;;;;3.05;0.63;;;22.80;61.10;;;;;;4460391;32;20085;-72
2022/08/30 06:51:29;;;;;;;11.02;0.93;;;22.80;61.10;;;;;;4460702;32;20070;-71
2022/08/30 06:53:55;;;;;;;3.90;1.02;;;22.80;61.20;;;;;;4459900;32;20534;-77
2022/08/30 06:56:22;;;;;;;6.25;1.08;;;22.80;61.10;;;;;;4459959;32;20117;-73
2022/08/30 06:58:49;;;;;;;12.20;1.05;;;22.90;61.10;;;;;;4460440;32;20163;-76
2022/08/30 07:01:18;;;;;;;14.00;1.60;;;22.90;61.00;;;;;;4446492;32;20211;-77
2022/08/30 07:03:44;;;;;;;2.47;1.15;;;22.90;60.90;;;;;;4459842;32;20092;-74
2022/08/30 07:06:12;;;;;;;5.22;1.23;;;22.90;60.80;;;;;;4459817;32;20074;-74
2022/08/30 07:08:39;;;;;;;4.18;1.05;;;22.90;60.70;;;;;;4446379;32;20235;-74
2022/08/30 07:11:06;;;;;;;4.57;0.93;;;23.00;60.30;;;;;;4460412;32;20086;-71
2022/08/30 07:13:33;;;;;;;8.50;1.20;;;23.00;59.70;;;;;;4460455;32;20633;-71
2022/08/30 07:15:59;;;;;;;11.35;1.40;;;23.00;59.30;;;;;;4460257;32;20172;-71
2022/08/30 07:21:15;;;;;;;6.85;1.85;;;23.00;59.00;;;;;;4460580;32;20289;-73
2022/08/30 07:23:42;;;;;;;4.60;1.35;;;23.10;58.90;;;;;;4460063;32;20082;-76
2022/08/30 07:26:10;;;;;;;5.72;1.17;;;23.00;58.70;;;;;;4460319;32;20069;-74
2022/08/30 07:28:38;;;;;;;5.45;1.30;;;23.10;58.70;;;;;;4460273;32;20078;-75
2022/08/30 07:31:05;;;;;;;4.85;1.27;;;23.10;58.70;;;;;;4460466;32;20097;-73
2022/08/30 07:33:31;;;;;;;3.28;1.23;;;23.10;58.60;;;;;;4460125;32;20066;-74
2022/08/30 07:35:58;;;;;;;51.13;12.13;;;23.10;58.40;;;;;;4460043;32;20090;-74
2022/08/30 07:38:25;;;;;;;33.08;8.23;;;23.10;58.50;;;;;;4460327;32;20074;-74
2022/08/30 07:40:51;;;;;;;34.95;9.73;;;23.20;58.60;;;;;;4459803;32;20082;-74
2022/08/30 07:43:17;;;;;;;29.80;9.65;;;23.20;58.70;;;;;;4459754;32;20200;-72
2022/08/30 07:45:42;;;;;;;31.98;8.73;;;23.30;58.90;;;;;;4459634;32;20102;-74
2022/08/30 07:48:11;;;;;;;22.40;7.85;;;23.30;58.60;;;;;;4460131;32;20422;-74
2022/08/30 07:50:43;;;;;;;21.88;6.65;;;23.30;58.40;;;;;;4460179;32;20183;-73
2022/08/30 07:53:09;;;;;;;21.70;7.45;;;23.30;58.10;;;;;;4460272;32;20407;-72
2022/08/30 07:55:35;;;;;;;22.08;7.38;;;23.30;57.90;;;;;;4460126;32;20062;-73
2022/08/30 07:58:01;;;;;;;18.63;6.70;;;23.40;57.90;;;;;;4460113;32;20500;-74
2022/08/30 08:00:27;;;;;;;20.60;6.95;;;23.40;57.70;;;;;;4446229;32;20069;-76
2022/08/30 08:02:53;;;;;;;14.13;5.13;;;23.40;57.40;;;;;;4460323;32;20097;-73
2022/08/30 08:05:20;;;;;;;9.15;3.63;;;23.40;57.00;;;;;;4460050;32;20089;-72
2022/08/30 08:07:46;;;;;;;10.77;2.83;;;23.30;56.40;;;;;;4461575;32;20081;-79
2022/08/30 08:10:13;;;;;;;5.55;2.10;;;23.30;56.10;;;;;;4463311;32;20652;-72
2022/08/30 08:12:39;;;;;;;4.03;1.48;;;23.30;55.70;;;;;;4462813;32;20094;-72
2022/08/30 08:15:06;;;;;;;5.65;2.05;;;23.20;55.50;;;;;;4462669;32;20519;-72
2022/08/30 08:17:32;;;;;;;2.25;1.40;;;23.20;55.40;;;;;;4462870;32;20267;-72
2022/08/30 08:19:58;;;;;;;3.00;1.13;;;23.10;55.20;;;;;;4462681;32;20499;-73
2022/08/30 08:22:24;;;;;;;4.25;1.30;;;23.10;54.80;;;;;;4462336;32;20069;-72
2022/08/30 08:24:50;;;;;;;3.42;1.33;;;23.10;54.60;;;;;;4448835;32;20065;-71
2022/08/30 08:27:16;;;;;;;3.05;1.20;;;23.10;54.50;;;;;;4463282;32;20061;-72
2022/08/30 08:29:42;;;;;;;3.60;0.80;;;23.10;54.40;;;;;;4463118;32;20423;-72
2022/08/30 08:32:08;;;;;;;2.53;1.10;;;23.10;54.30;;;;;;4463156;32;20383;-71
2022/08/30 08:34:34;;;;;;;3.50;1.40;;;23.10;54.10;;;;;;4448720;32;20088;-71
2022/08/30 08:37:00;;;;;;;4.30;1.13;;;23.10;54.10;;;;;;4462585;32;20475;-71
2022/08/30 08:39:26;;;;;;;3.65;1.02;;;23.10;54.00;;;;;;4462522;32;20504;-72
2022/08/30 08:42:47;;;;;;;2.58;1.10;;;23.20;53.50;;;;;;4461918;32;20279;-73
2022/08/30 08:45:20;;;;;;;6.68;1.00;;;23.10;52.70;;;;;;4462311;32;20106;-73
2022/08/30 08:48:00;;;;;;;9.57;4.80;;;23.10;52.30;;;;;;4462655;32;20089;-71
2022/08/30 08:50:28;;;;;;;5.97;3.05;;;23.10;52.20;;;;;;4462318;32;20080;-72
2022/08/30 08:55:55;;;;;;;4.75;1.88;;;23.00;52.00;;;;;;4462614;32;20132;-71
2022/08/30 08:58:27;;;;;;;7.95;3.35;;;23.00;52.40;;;;;;4462425;32;20078;-71
2022/08/30 09:00:55;;;;;;;10.90;3.65;;;23.10;52.70;;;;;;4462285;32;20113;-72
2022/08/30 09:03:23;;;;;;;13.85;6.35;;;23.10;52.90;;;;;;4462337;32;20070;-71
2022/08/30 09:05:50;;;;;;;11.57;4.95;;;23.10;53.30;;;;;;4462299;32;20066;-72
2022/08/30 09:08:18;;;;;;;18.35;8.60;;;23.10;53.40;;;;;;4461983;32;20070;-70
2022/08/30 09:11:09;;;;;;;7.38;3.60;;;23.10;53.60;;;;;;4461849;32;20074;-71
2022/08/30 09:13:35;;;;;;;3.40;1.98;;;23.10;53.00;;;;;;4462359;32;20070;-70
2022/08/30 09:16:03;;;;;;;5.88;1.65;;;23.10;52.70;;;;;;4462015;32;20077;-70
2022/08/30 09:18:43;;;;;;;2.90;1.20;;;23.10;52.40;;;;;;4461950;32;20167;-72
2022/08/30 09:21:10;;;;;;;5.80;1.40;;;23.10;52.10;;;;;;4461731;32;20092;-75
2022/08/30 09:23:45;;;;;;;5.43;1.20;;;23.10;52.10;;;;;;4447770;32;20504;-71
2022/08/30 09:26:12;;;;;;;1.73;0.90;;;23.10;51.90;;;;;;4461945;32;20645;-72
2022/08/30 09:28:49;;;;;;;3.45;0.95;;;23.10;51.90;;;;;;4461469;32;20070;-71
2022/08/30 09:31:27;;;;;;;3.25;1.00;;;23.10;51.40;;;;;;4461613;32;20140;-73
2022/08/30 09:34:04;;;;;;;1.70;0.85;;;23.10;51.20;;;;;;4461590;32;20132;-73
2022/08/30 09:36:42;;;;;;;2.15;1.00;;;23.10;51.20;;;;;;4461305;32;20514;-71
2022/08/30 09:39:18;;;;;;;2.40;0.95;;;23.10;51.00;;;;;;4461533;32;20085;-72
2022/08/30 09:41:48;;;;;;;1.95;0.80;;;23.10;50.90;;;;;;4461229;32;20066;-73
2022/08/30 09:44:14;;;;;;;4.93;0.85;;;23.10;51.10;;;;;;4461144;32;20199;-73
2022/08/30 09:46:58;;;;;;;3.45;0.90;;;23.20;51.00;;;;;;4447565;32;20394;-70
2022/08/30 09:49:33;;;;;;;5.88;0.82;;;23.20;50.90;;;;;;4448860;32;20501;-72
2022/08/30 09:52:31;;;;;;;4.15;0.98;;;23.20;51.00;;;;;;4461234;32;20089;-71
2022/08/30 09:55:20;;;;;;;1.77;0.65;;;23.30;51.00;;;;;;4447147;32;20058;-72
2022/08/30 09:58:06;;;;;;;1.42;0.70;;;23.30;51.10;;;;;;4461876;32;20077;-72
2022/08/30 10:00:39;;;;;;;1.67;0.68;;;23.40;51.10;;;;;;4461422;32;20216;-71
2022/08/30 10:03:20;;;;;;;;;;;23.40;51.10;;;;;;4461897;32;20544;-73
2022/08/30 10:06:17;;;;;;;1.45;0.90;;;23.40;51.10;;;;;;4447182;32;19982;-72
2022/08/30 10:09:10;;;;;;;2.47;0.68;;;23.50;51.00;;;;;;4461126;32;20202;-71
2022/08/30 10:11:42;;;;;;;1.25;0.80;;;23.50;51.00;;;;;;4447232;32;20077;-72
2022/08/30 10:14:08;;;;;;;1.35;0.80;;;23.60;51.10;;;;;;4460727;32;20099;-71
2022/08/30 10:16:49;;;;;;;2.35;0.82;;;23.60;51.20;;;;;;4460998;32;20395;-71
2022/08/30 10:19:20;;;;;;;1.17;0.73;;;23.60;51.20;;;;;;4461093;32;20195;-72
2022/08/30 10:22:18;;;;;;;1.52;0.80;;;23.60;51.30;;;;;;4461021;32;20227;-71
2022/08/30 10:25:00;;;;;;;1.17;0.65;;;23.60;51.30;;;;;;4426128;32;20101;-73
2022/08/30 10:27:30;;;;;;;2.67;0.90;;;23.60;51.20;;;;;;4460932;32;20083;-71
2022/08/30 10:30:10;;;;;;;1.00;0.73;;;23.70;51.30;;;;;;4460587;32;20196;-72
2022/08/30 10:32:46;;;;;;;1.63;0.90;;;23.70;51.40;;;;;;4460822;32;20080;-73
2022/08/30 10:35:17;;;;;;;1.90;0.68;;;23.70;51.50;;;;;;4461133;32;20275;-72
2022/08/30 10:37:53;;;;;;;0.93;0.60;;;23.70;51.50;;;;;;4460754;32;20184;-72
2022/08/30 10:43:21;;;;;;;2.05;0.82;;;23.80;51.50;;;;;;4460539;32;20102;-71
2022/08/30 10:45:49;;;;;;;1.38;0.70;;;23.70;51.50;;;;;;4446778;32;20201;-73
2022/08/30 10:48:23;;;;;;;2.13;0.73;;;23.70;51.60;;;;;;4460732;32;20061;-72
2022/08/30 10:50:52;;;;;;;1.08;0.70;;;23.70;51.80;;;;;;4460663;32;20078;-71
2022/08/30 10:53:31;;;;;;;4.80;0.90;;;23.70;51.80;;;;;;4460561;32;20093;-71
2022/08/30 10:56:04;;;;;;;1.27;0.68;;;23.70;52.00;;;;;;4460985;32;20070;-78
2022/08/30 10:58:30;;;;;;;3.55;0.70;;;23.70;51.90;;;;;;4460330;32;20074;-73
2022/08/30 11:01:20;;;;;;;1.90;1.00;;;23.70;51.80;;;;;;4460524;32;20066;-72
2022/08/30 11:04:31;;;;;;;5.57;0.80;;;23.70;51.70;;;;;;4460584;32;20216;-72
2022/08/30 11:07:25;;;;;;;3.47;0.95;;;23.70;51.90;;;;;;4460914;32;20084;-72
2022/08/30 11:10:14;;;;;;;1.52;0.68;;;23.70;52.00;;;;;;4459117;32;20140;-72
2022/08/30 11:12:49;;;;;;;2.05;0.93;;;23.70;52.00;;;;;;4460278;32;20086;-72
2022/08/30 11:15:29;;;;;;;1.17;0.93;;;23.70;52.00;;;;;;4460154;32;20074;-71
2022/08/30 11:18:04;;;;;;;3.03;0.75;;;23.80;52.10;;;;;;4460748;32;20069;-75
2022/08/30 11:20:53;;;;;;;2.78;0.85;;;23.80;52.10;;;;;;4460771;32;20174;-72
2022/08/30 11:23:31;;;;;;;1.25;0.70;;;23.80;52.00;;;;;;4460589;32;20155;-73
2022/08/30 11:26:02;;;;;;;1.45;0.70;;;23.80;51.90;;;;;;4459885;32;20227;-74
2022/08/30 11:28:34;;;;;;;0.82;0.60;;;23.80;52.00;;;;;;4460232;32;20096;-72
2022/08/30 11:31:05;;;;;;;3.35;1.23;;;23.80;52.00;;;;;;4446054;32;20069;-73
2022/08/30 11:33:44;;;;;;;3.50;0.68;;;23.80;52.00;;;;;;4460386;32;20091;-72
2022/08/30 11:36:34;;;;;;;1.33;0.70;;;23.80;52.00;;;;;;4460567;32;20082;-73
2022/08/30 11:39:10;;;;;;;1.85;0.90;;;23.80;52.00;;;;;;4445874;32;20082;-74
2022/08/30 11:42:06;;;;;;;1.85;0.60;;;23.80;52.10;;;;;;4460774;32;20102;-75
2022/08/30 11:44:32;;;;;;;1.35;0.88;;;23.80;51.90;;;;;;4462936;32;20096;-73
2022/08/30 11:47:19;;;;;;;1.00;0.65;;;23.80;52.90;;;;;;4463161;32;20128;-76
2022/08/30 11:49:51;;;;;;;1.35;0.80;;;23.80;51.90;;;;;;4463240;32;20094;-73
2022/08/30 11:52:55;;;;;;;1.80;0.80;;;23.80;51.80;;;;;;4449230;32;20077;-72
2022/08/30 11:55:24;;;;;;;;;;;23.80;51.90;;;;;;4463915;32;20124;-73
2022/08/30 11:58:18;;;;;;;4.13;0.80;;;23.80;51.90;;;;;;4463011;32;20383;-72
2022/08/30 12:00:46;;;;;;;1.08;0.80;;;23.80;51.80;;;;;;4462639;32;20438;-72
2022/08/30 12:03:18;;;;;;;1.60;0.82;;;23.90;52.00;;;;;;4462913;32;20089;-72
2022/08/30 12:05:50;;;;;;;1.38;0.70;;;23.90;52.00;;;;;;4463930;32;20231;-73
2022/08/30 12:08:19;;;;;;;2.58;0.77;;;23.90;51.90;;;;;;4464175;32;20066;-72
2022/08/30 12:10:52;;;;;;;1.88;0.77;;;23.90;52.70;;;;;;4465416;32;20171;-72
2022/08/30 12:13:35;;;;;;;3.28;0.73;;;23.90;51.70;;;;;;4466263;32;20256;-72
2022/08/30 12:16:22;;;;;;;1.35;0.85;;;23.90;51.60;;;;;;4462942;32;20089;-72
2022/08/30 12:19:03;;;;;;;2.25;0.70;;;23.90;51.80;;;;;;4462961;32;20140;-73
2022/08/30 12:21:35;;;;;;;3.72;0.80;;;23.90;51.80;;;;;;4462421;32;20090;-72
2022/08/30 12:24:09;;;;;;;2.03;1.00;;;24.00;51.70;;;;;;4463002;32;20168;-72
2022/08/30 12:26:36;;;;;;;;;;;23.90;51.70;;;;;;4449430;32;20069;-72
2022/08/30 12:29:20;;;;;;;1.08;0.50;;;24.00;51.80;;;;;;4462556;32;19966;-72
2022/08/30 12:32:03;;;;;;;1.65;0.65;;;24.00;52.00;;;;;;4462889;32;20649;-71
2022/08/30 12:34:30;;;;;;;2.20;0.65;;;24.00;52.00;;;;;;4462654;32;20487;-71
2022/08/30 12:37:07;;;;;;;1.05;0.70;;;24.00;52.10;;;;;;4462229;32;20088;-72
2022/08/30 12:39:36;;;;;;;1.15;0.80;;;24.00;52.00;;;;;;4462836;32;20105;-70
2022/08/30 12:42:29;;;;;;;1.55;0.60;;;24.00;52.10;;;;;;4461910;32;20646;-71
2022/08/30 12:44:58;;;;;;;2.05;0.85;;;24.00;52.10;;;;;;4462532;32;20125;-70
2022/08/30 12:47:36;;;;;;;2.78;0.85;;;24.00;52.30;;;;;;4462567;32;20102;-69
2022/08/30 12:50:04;;;;;;;1.70;0.70;;;24.00;52.30;;;;;;4462406;32;20256;-71
2022/08/30 12:52:36;;;;;;;1.95;0.77;;;24.00;52.30;;;;;;4462115;32;20389;-71
2022/08/30 12:55:19;;;;;;;2.72;0.70;;;24.00;52.30;;;;;;4462271;32;20081;-71
2022/08/30 12:58:00;;;;;;;1.63;0.70;;;24.10;52.30;;;;;;4462191;32;20070;-72
2022/08/30 13:00:29;;;;;;;2.95;0.95;;;24.10;52.20;;;;;;4462373;32;20454;-72
2022/08/30 13:02:58;;;;;;;1.63;0.80;;;24.10;52.30;;;;;;4447933;32;20140;-72
2022/08/30 13:05:41;;;;;;;1.33;0.57;;;24.10;52.30;;;;;;4461886;32;20231;-73
2022/08/30 13:08:19;;;;;;;3.15;0.75;;;24.10;52.30;;;;;;4462172;32;20078;-72
2022/08/30 13:10:52;;;;;;;1.52;0.80;;;24.10;52.30;;;;;;4462132;32;20200;-72
2022/08/30 13:13:39;;;;;;;1.45;0.80;;;24.10;52.40;;;;;;4461981;32;20187;-72